createdAt,value
2022-12-19T00:00:41.903Z,87.38
2022-12-19T00:03:09.135Z,87.14
2022-12-19T00:05:37.772Z,87.55
2022-12-19T00:08:12.394Z,87.33
2022-12-19T00:10:53.734Z,87.18
2022-12-19T00:13:20.743Z,87.14
2022-12-19T00:15:47.750Z,86.82
2022-12-19T00:18:14.901Z,86.68
2022-12-19T00:20:41.967Z,86.30
2022-12-19T00:23:09.117Z,86.73
2022-12-19T00:25:36.275Z,86.27
2022-12-19T00:28:12.166Z,86.26
2022-12-19T00:30:39.363Z,86.30
2022-12-19T00:33:06.751Z,86.03
2022-12-19T00:35:33.783Z,86.09
2022-12-19T00:38:00.948Z,86.51
2022-12-19T00:40:28.739Z,86.25
2022-12-19T00:42:55.874Z,85.90
2022-12-19T00:45:25.463Z,86.18
2022-12-19T00:47:52.535Z,86.26
2022-12-19T00:50:21.000Z,86.15
2022-12-19T00:52:48.042Z,85.83
2022-12-19T00:55:18.427Z,85.54
2022-12-19T00:57:46.588Z,86.08
2022-12-19T01:00:14.551Z,85.96
2022-12-19T01:02:41.748Z,85.79
2022-12-19T01:05:09.340Z,86.25
2022-12-19T01:07:36.493Z,85.39
2022-12-19T01:10:04.631Z,85.19
2022-12-19T01:12:31.907Z,85.67
2022-12-19T01:15:04.556Z,85.83
2022-12-19T01:17:33.803Z,86.37
2022-12-19T01:20:02.734Z,86.30
2022-12-19T01:22:29.753Z,85.71
2022-12-19T01:24:56.773Z,85.97
2022-12-19T01:27:23.813Z,86.39
2022-12-19T01:29:52.240Z,86.18
2022-12-19T01:32:21.654Z,86.29
2022-12-19T01:34:50.820Z,86.35
2022-12-19T01:37:18.392Z,85.35
2022-12-19T01:39:46.182Z,85.75
2022-12-19T01:42:23.327Z,86.22
2022-12-19T01:45:12.290Z,85.83
2022-12-19T01:48:00.702Z,86.86
2022-12-19T01:50:44.963Z,87.49
2022-12-19T01:53:29.937Z,86.80
2022-12-19T01:55:57.594Z,86.98
2022-12-19T01:58:25.475Z,87.21
2022-12-19T02:00:52.604Z,87.97
2022-12-19T02:03:26.918Z,87.44
2022-12-19T02:05:55.113Z,87.91
2022-12-19T02:08:24.391Z,88.22
2022-12-19T02:10:51.551Z,88.82
2022-12-19T02:13:19.489Z,88.91
2022-12-19T02:15:59.693Z,88.60
2022-12-19T02:18:40.476Z,87.79
2022-12-19T02:21:30.988Z,88.30
2022-12-19T02:24:31.194Z,87.74
2022-12-19T02:27:19.895Z,88.09
2022-12-19T02:30:00.781Z,87.88
2022-12-19T02:32:46.195Z,87.90
2022-12-19T02:35:46.867Z,88.10
2022-12-19T02:38:38.756Z,87.55
2022-12-19T02:41:15.714Z,88.36
2022-12-19T02:43:49.100Z,88.49
2022-12-19T02:46:27.930Z,89.50
2022-12-19T02:48:56.542Z,88.26
2022-12-19T02:51:23.583Z,89.29
2022-12-19T02:53:51.115Z,89.18
2022-12-19T02:56:42.864Z,88.67
2022-12-19T02:59:34.909Z,90.14
2022-12-19T03:02:08.215Z,89.51
2022-12-19T03:04:41.438Z,90.03
2022-12-19T03:07:36.849Z,89.96
2022-12-19T03:10:18.210Z,90.49
2022-12-19T03:12:53.607Z,90.86
2022-12-19T03:15:22.246Z,91.09
2022-12-19T03:17:50.269Z,91.18
2022-12-19T03:20:42.223Z,92.44
2022-12-19T03:23:09.620Z,92.40
2022-12-19T03:25:37.241Z,93.09
2022-12-19T03:28:15.387Z,92.93
2022-12-19T03:30:43.928Z,92.72
2022-12-19T03:33:13.439Z,92.38
2022-12-19T03:35:41.715Z,92.72
2022-12-19T03:38:10.906Z,93.07
2022-12-19T03:40:42.864Z,92.61
2022-12-19T03:43:12.693Z,92.53
2022-12-19T03:45:40.410Z,92.03
2022-12-19T03:48:13.943Z,91.75
2022-12-19T03:50:53.179Z,91.81
2022-12-19T03:53:26.187Z,91.98
2022-12-19T03:56:09.817Z,91.34
2022-12-19T03:58:40.883Z,92.31
2022-12-19T04:01:09.576Z,92.86
2022-12-19T04:03:36.915Z,92.76
2022-12-19T04:06:05.369Z,93.03
2022-12-19T04:08:33.552Z,93.33
2022-12-19T04:11:09.715Z,94.03
2022-12-19T04:14:05.952Z,94.46
2022-12-19T04:16:44.813Z,94.41
2022-12-19T04:19:28.526Z,94.11
2022-12-19T04:22:12.659Z,94.12
2022-12-19T04:24:42.803Z,93.88
2022-12-19T04:27:13.131Z,94.21
2022-12-19T04:29:41.385Z,93.66
2022-12-19T04:32:09.557Z,93.61
2022-12-19T04:34:40.199Z,93.64
2022-12-19T04:37:11.042Z,92.76
2022-12-19T04:39:38.522Z,92.92
2022-12-19T04:42:05.763Z,93.38
2022-12-19T04:44:32.810Z,93.72
2022-12-19T04:46:59.932Z,93.49
2022-12-19T04:49:27.002Z,93.59
2022-12-19T04:51:54.149Z,93.75
2022-12-19T04:54:21.744Z,93.76
2022-12-19T04:56:48.779Z,93.92
2022-12-19T04:59:15.822Z,93.44
2022-12-19T05:01:43.005Z,93.39
2022-12-19T05:04:10.270Z,93.69
2022-12-19T05:06:39.580Z,93.64
2022-12-19T05:09:06.687Z,93.57
2022-12-19T05:11:33.725Z,92.88
2022-12-19T05:14:00.773Z,93.94
2022-12-19T05:16:28.336Z,93.60
2022-12-19T05:18:56.247Z,94.08
2022-12-19T05:21:23.837Z,94.46
2022-12-19T05:23:51.116Z,93.84
2022-12-19T05:26:20.711Z,92.43
2022-12-19T05:28:47.682Z,92.40
2022-12-19T05:31:17.980Z,92.70
2022-12-19T05:33:45.814Z,92.54
2022-12-19T05:36:15.007Z,92.54
2022-12-19T05:38:42.199Z,92.89
2022-12-19T05:41:11.470Z,92.45
2022-12-19T05:43:43.737Z,92.70
2022-12-19T05:46:11.452Z,93.27
2022-12-19T05:48:38.634Z,92.84
2022-12-19T05:51:05.743Z,92.23
2022-12-19T05:53:35.598Z,92.71
2022-12-19T05:56:17.007Z,92.71
2022-12-19T05:58:45.930Z,92.28
2022-12-19T06:01:17.196Z,92.19
2022-12-19T06:03:44.679Z,91.57
2022-12-19T06:06:14.738Z,92.57
2022-12-19T06:08:42.489Z,92.20
2022-12-19T06:11:11.322Z,93.15
2022-12-19T06:13:39.007Z,91.81
2022-12-19T06:16:12.242Z,92.63
2022-12-19T06:18:45.003Z,91.68
2022-12-19T06:21:19.599Z,92.14
2022-12-19T06:23:47.472Z,91.73
2022-12-19T06:26:19.859Z,91.67
2022-12-19T06:28:52.217Z,91.28
2022-12-19T06:31:21.427Z,91.21
2022-12-19T06:33:48.930Z,91.89
2022-12-19T06:36:21.100Z,92.96
2022-12-19T06:38:49.043Z,93.10
2022-12-19T06:41:20.043Z,92.83
2022-12-19T06:43:51.893Z,92.68
2022-12-19T06:46:20.862Z,92.78
2022-12-19T06:48:47.996Z,92.57
2022-12-19T06:51:15.141Z,91.90
2022-12-19T06:53:43.383Z,92.04
2022-12-19T06:56:13.432Z,92.41
2022-12-19T06:58:40.583Z,92.85
2022-12-19T07:01:08.233Z,93.35
2022-12-19T07:03:40.078Z,92.97
2022-12-19T07:06:07.924Z,92.48
2022-12-19T07:08:35.005Z,92.15
2022-12-19T07:11:02.957Z,92.26
2022-12-19T07:13:31.236Z,92.13
2022-12-19T07:16:02.650Z,91.88
2022-12-19T07:18:38.480Z,91.80
2022-12-19T07:21:07.852Z,93.54
2022-12-19T07:23:35.399Z,93.06
2022-12-19T07:26:02.650Z,93.31
2022-12-19T07:28:29.809Z,93.63
2022-12-19T07:30:56.908Z,94.34
2022-12-19T07:33:24.077Z,93.75
2022-12-19T07:35:51.178Z,95.13
2022-12-19T07:38:18.323Z,95.06
2022-12-19T07:40:45.407Z,95.19
2022-12-19T07:43:12.467Z,96.08
2022-12-19T07:45:39.762Z,96.32
2022-12-19T07:48:08.233Z,95.50
2022-12-19T07:50:35.617Z,95.53
2022-12-19T07:53:02.878Z,95.79
2022-12-19T07:55:30.026Z,95.69
2022-12-19T07:57:57.115Z,95.61
2022-12-19T08:00:24.177Z,95.70
2022-12-19T08:02:51.362Z,96.81
2022-12-19T08:05:18.769Z,97.45
2022-12-19T08:07:45.787Z,97.55
2022-12-19T08:10:12.820Z,98.30
2022-12-19T08:12:42.976Z,98.00
2022-12-19T08:15:11.002Z,98.21
2022-12-19T08:17:38.667Z,98.67
2022-12-19T08:20:09.840Z,99.22
2022-12-19T08:22:37.289Z,99.55
2022-12-19T08:25:04.835Z,99.88
2022-12-19T08:27:31.934Z,99.70
2022-12-19T08:29:58.956Z,99.68
2022-12-19T08:32:28.530Z,99.35
2022-12-19T08:34:55.569Z,99.47
2022-12-19T08:37:22.716Z,98.77
2022-12-19T08:39:49.747Z,98.32
2022-12-19T08:42:16.775Z,98.39
2022-12-19T08:44:44.967Z,98.73
2022-12-19T08:47:11.961Z,98.93
2022-12-19T08:49:39.030Z,98.42
2022-12-19T08:52:06.302Z,98.70
2022-12-19T08:54:33.615Z,98.41
2022-12-19T08:57:04.500Z,98.26
2022-12-19T08:59:32.261Z,98.43
2022-12-19T09:02:00.847Z,98.67
2022-12-19T09:06:01.676Z,97.75
2022-12-19T09:07:16.493Z,97.22
2022-12-19T09:09:44.648Z,97.21
2022-12-19T09:12:15.407Z,97.43
2022-12-19T09:14:42.557Z,98.19
2022-12-19T09:17:10.204Z,99.02
2022-12-19T09:19:37.316Z,99.74
2022-12-19T09:22:04.961Z,99.27
2022-12-19T09:24:32.089Z,98.78
2022-12-19T09:26:59.155Z,98.48
2022-12-19T09:29:28.701Z,98.61
2022-12-19T09:31:58.539Z,98.80
2022-12-19T09:34:33.023Z,98.72
2022-12-19T09:37:16.962Z,98.36
2022-12-19T09:39:46.961Z,97.95
2022-12-19T09:42:41.388Z,97.58
2022-12-19T09:45:33.304Z,97.34
2022-12-19T09:48:01.798Z,97.16
2022-12-19T09:51:11.124Z,96.20
2022-12-19T09:54:09.527Z,96.94
2022-12-19T09:56:46.525Z,97.25
2022-12-19T09:59:41.233Z,96.72
2022-12-19T10:02:24.113Z,96.83
2022-12-19T10:05:11.449Z,96.49
2022-12-19T10:08:09.747Z,96.68
2022-12-19T10:12:37.860Z,96.44
2022-12-19T10:14:11.964Z,95.80
2022-12-19T10:17:24.883Z,96.56
2022-12-19T10:20:11.058Z,97.76
2022-12-19T10:23:07.833Z,97.53
2022-12-19T10:25:59.752Z,97.69
2022-12-19T10:28:37.417Z,97.52
2022-12-19T10:31:21.404Z,97.53
2022-12-19T10:34:18.121Z,97.04
2022-12-19T10:37:20.960Z,96.76
2022-12-19T10:39:39.859Z,96.53
2022-12-19T10:42:17.198Z,96.72
2022-12-19T10:44:47.486Z,96.40
2022-12-19T10:47:17.023Z,96.49
2022-12-19T10:49:44.118Z,96.23
2022-12-19T10:52:12.595Z,96.44
2022-12-19T10:54:43.071Z,96.68
2022-12-19T10:57:22.134Z,96.68
2022-12-19T11:00:16.990Z,96.46
2022-12-19T11:02:49.688Z,96.85
2022-12-19T11:05:42.091Z,97.29
2022-12-19T11:08:09.054Z,98.38
2022-12-19T11:11:50.267Z,98.73
2022-12-19T11:19:13.300Z,98.40
2022-12-19T11:21:21.368Z,98.97
2022-12-19T11:29:38.156Z,98.50
2022-12-19T11:29:39.120Z,98.25
2022-12-19T11:29:55.844Z,98.33
2022-12-19T11:30:45.318Z,98.24
2022-12-19T11:34:06.261Z,97.00
2022-12-19T11:36:41.598Z,97.01
2022-12-19T11:39:30.403Z,97.88
2022-12-19T11:42:18.368Z,98.27
2022-12-19T11:45:11.596Z,98.94
2022-12-19T11:47:51.385Z,99.63
2022-12-19T11:50:25.119Z,99.00
2022-12-19T11:53:20.934Z,99.21
2022-12-19T11:55:58.873Z,99.98
2022-12-19T11:58:28.451Z,100.00
2022-12-19T12:01:37.843Z,100.00
2022-12-19T12:04:32.998Z,100.00
2022-12-19T12:07:00.503Z,100.00
2022-12-19T12:16:09.421Z,100.00
2022-12-19T12:18:29.501Z,100.00
2022-12-19T12:24:50.784Z,100.00
2022-12-19T12:31:04.287Z,100.00
2022-12-19T12:31:49.210Z,100.00
2022-12-19T12:31:49.443Z,100.00
2022-12-19T12:32:05.782Z,100.00
2022-12-19T12:35:43.571Z,100.00
2022-12-19T12:38:28.981Z,100.00
2022-12-19T12:41:14.456Z,99.90
2022-12-19T12:43:59.636Z,99.07
2022-12-19T12:46:33.982Z,98.92
2022-12-19T12:49:25.623Z,98.70
2022-12-19T12:51:53.201Z,98.35
2022-12-19T12:54:21.640Z,98.56
2022-12-19T12:56:48.661Z,98.55
2022-12-19T12:59:24.375Z,98.37
2022-12-19T13:02:11.301Z,98.40
2022-12-19T13:04:54.042Z,98.99
2022-12-19T13:07:35.592Z,99.40
2022-12-19T13:10:13.917Z,99.19
2022-12-19T13:13:02.987Z,99.47
2022-12-19T13:15:39.427Z,99.47
2022-12-19T13:18:12.328Z,100.00
2022-12-19T13:20:43.599Z,100.00
2022-12-19T13:23:23.883Z,99.79
2022-12-19T13:25:53.653Z,100.00
2022-12-19T13:28:20.696Z,100.00
2022-12-19T13:31:18.885Z,100.00
2022-12-19T13:33:55.128Z,100.00
2022-12-19T13:39:48.494Z,100.00
2022-12-19T13:40:18.580Z,100.00
2022-12-19T13:43:10.726Z,100.00
2022-12-19T13:45:57.038Z,100.00
2022-12-19T13:48:40.234Z,100.00
2022-12-19T13:51:12.469Z,100.00
2022-12-19T13:53:41.174Z,100.00
2022-12-19T13:56:18.282Z,100.00
2022-12-19T13:58:49.163Z,100.00
2022-12-19T14:01:23.529Z,100.00
2022-12-19T14:03:53.210Z,100.00
2022-12-19T14:06:24.749Z,100.00
2022-12-19T14:09:37.451Z,100.00
2022-12-19T14:13:46.850Z,100.00
2022-12-19T14:14:32.910Z,100.00
2022-12-19T14:17:08.850Z,100.00
2022-12-19T14:19:44.921Z,100.00
2022-12-19T14:22:20.567Z,100.00
2022-12-19T14:28:14.279Z,100.00
2022-12-19T14:28:19.581Z,100.00
2022-12-19T14:31:02.916Z,100.00
2022-12-19T14:33:47.422Z,100.00
2022-12-19T14:36:31.418Z,100.00
2022-12-19T14:39:24.147Z,100.00
2022-12-19T14:41:52.624Z,100.00
2022-12-19T14:52:34.558Z,100.00
2022-12-19T14:54:13.638Z,100.00
2022-12-19T14:54:22.569Z,100.00
2022-12-19T14:54:51.480Z,100.00
2022-12-19T14:56:36.275Z,100.00
2022-12-19T14:59:17.429Z,100.00
2022-12-19T15:01:55.625Z,100.00
2022-12-19T15:04:51.622Z,100.00
2022-12-19T15:07:41.821Z,100.00
2022-12-19T15:11:07.282Z,100.00
2022-12-19T15:14:47.700Z,100.00
2022-12-19T15:16:24.855Z,100.00
2022-12-19T15:18:56.015Z,100.00
2022-12-19T15:21:23.397Z,100.00
2022-12-19T15:23:50.759Z,100.00
2022-12-19T15:26:32.089Z,100.00
2022-12-19T15:29:01.910Z,100.00
2022-12-19T15:31:40.041Z,100.00
2022-12-19T15:34:34.714Z,100.00
2022-12-19T15:37:03.241Z,100.00
2022-12-19T15:39:32.968Z,100.00
2022-12-19T15:42:01.225Z,100.00
2022-12-19T15:44:39.892Z,100.00
2022-12-19T15:47:34.292Z,100.00
2022-12-19T15:50:02.532Z,100.00
2022-12-19T15:52:32.066Z,100.00
2022-12-19T15:55:00.256Z,100.00
2022-12-19T15:57:39.757Z,100.00
2022-12-19T16:00:18.183Z,100.00
2022-12-19T16:05:33.503Z,100.00
2022-12-19T16:08:00.682Z,100.00
2022-12-19T16:10:29.344Z,100.00
2022-12-19T16:12:57.212Z,100.00
2022-12-19T16:15:30.982Z,100.00
2022-12-19T16:18:00.375Z,100.00
2022-12-19T16:20:30.846Z,100.00
2022-12-19T16:23:07.032Z,100.00
2022-12-19T16:25:38.996Z,100.00
2022-12-19T16:28:13.479Z,100.00
2022-12-19T16:30:40.582Z,100.00
2022-12-19T16:33:19.152Z,100.00
2022-12-19T16:38:34.684Z,100.00
2022-12-19T16:41:03.423Z,100.00
2022-12-19T16:43:38.404Z,100.00
2022-12-19T16:46:07.157Z,100.00
2022-12-19T16:48:34.423Z,100.00
2022-12-19T16:51:01.819Z,100.00
2022-12-19T16:53:29.528Z,100.00
2022-12-19T16:55:57.267Z,100.00
2022-12-19T16:58:27.189Z,100.00
2022-12-19T17:00:55.204Z,100.00
2022-12-19T17:03:31.642Z,100.00
2022-12-19T17:05:58.902Z,100.00
2022-12-19T17:08:26.163Z,100.00
2022-12-19T17:10:54.609Z,100.00
2022-12-19T17:13:22.775Z,100.00
2022-12-19T17:15:56.341Z,100.00
2022-12-19T17:18:37.909Z,100.00
2022-12-19T17:21:05.136Z,100.00
2022-12-19T17:23:32.339Z,100.00
2022-12-19T17:25:59.673Z,100.00
2022-12-19T17:28:28.716Z,100.00
2022-12-19T17:30:59.144Z,100.00
2022-12-19T17:33:34.960Z,100.00
2022-12-19T17:36:03.903Z,100.00
2022-12-19T17:38:31.571Z,100.00
2022-12-19T17:40:58.907Z,100.00
2022-12-19T17:43:28.016Z,100.00
2022-12-19T17:45:55.485Z,100.00
2022-12-19T17:48:33.193Z,100.00
2022-12-19T17:51:00.275Z,100.00
2022-12-19T17:53:27.430Z,100.00
2022-12-19T17:55:54.505Z,100.00
2022-12-19T17:58:21.730Z,100.00
2022-12-19T18:00:49.983Z,100.00
2022-12-19T18:03:23.729Z,100.00
2022-12-19T18:05:54.585Z,100.00
2022-12-19T18:08:26.253Z,100.00
2022-12-19T18:10:57.537Z,100.00
2022-12-19T18:13:28.481Z,100.00
2022-12-19T18:15:58.162Z,100.00
2022-12-19T18:18:36.351Z,100.00
2022-12-19T18:21:04.181Z,100.00
2022-12-19T18:23:33.223Z,100.00
2022-12-19T18:26:02.484Z,100.00
2022-12-19T18:28:32.344Z,100.00
2022-12-19T18:31:12.509Z,100.00
2022-12-19T18:33:42.806Z,100.00
2022-12-19T18:36:17.553Z,100.00
2022-12-19T18:38:44.762Z,100.00
2022-12-19T18:41:12.254Z,100.00
2022-12-19T18:43:39.314Z,100.00
2022-12-19T18:46:06.884Z,100.00
2022-12-19T18:48:36.952Z,100.00
2022-12-19T18:51:05.527Z,100.00
2022-12-19T18:53:35.625Z,100.00
2022-12-19T18:56:05.281Z,100.00
2022-12-19T18:58:33.325Z,100.00
2022-12-19T19:01:01.641Z,100.00
2022-12-19T19:03:35.283Z,100.00
2022-12-19T19:06:20.201Z,100.00
2022-12-19T19:08:47.427Z,100.00
2022-12-19T19:11:35.707Z,100.00
2022-12-19T19:14:02.701Z,100.00
2022-12-19T19:16:29.883Z,100.00
2022-12-19T19:18:58.702Z,100.00
2022-12-19T19:21:29.760Z,100.00
2022-12-19T19:24:10.576Z,100.00
2022-12-19T19:26:37.849Z,100.00
2022-12-19T19:29:05.566Z,100.00
2022-12-19T19:31:36.624Z,100.00
2022-12-19T19:34:17.022Z,100.00
2022-12-19T19:36:46.700Z,100.00
2022-12-19T19:39:31.609Z,100.00
2022-12-19T19:41:58.887Z,100.00
2022-12-19T19:44:26.159Z,100.00
2022-12-19T19:46:53.314Z,100.00
2022-12-19T19:49:24.454Z,100.00
2022-12-19T19:51:56.828Z,100.00
2022-12-19T19:54:27.746Z,100.00
2022-12-19T19:56:54.880Z,100.00
2022-12-19T19:59:22.049Z,100.00
2022-12-19T20:01:52.306Z,100.00
2022-12-19T20:04:20.218Z,100.00
2022-12-19T20:06:47.456Z,100.00
2022-12-19T20:09:14.737Z,100.00
2022-12-19T20:11:41.859Z,100.00
2022-12-19T20:14:09.196Z,100.00
2022-12-19T20:16:47.175Z,100.00
2022-12-19T20:19:14.748Z,100.00
2022-12-19T20:21:42.739Z,100.00
2022-12-19T20:24:09.893Z,100.00
2022-12-19T20:26:37.087Z,100.00
2022-12-19T20:29:04.622Z,100.00
2022-12-19T20:31:32.663Z,100.00
2022-12-19T20:34:01.925Z,100.00
2022-12-19T20:36:29.007Z,100.00
2022-12-19T20:38:56.208Z,100.00
2022-12-19T20:41:23.379Z,100.00
2022-12-19T20:43:50.609Z,100.00
2022-12-19T20:46:20.522Z,100.00
2022-12-19T20:48:48.670Z,100.00
2022-12-19T20:51:17.726Z,100.00
2022-12-19T20:53:45.596Z,100.00
2022-12-19T20:56:17.888Z,100.00
2022-12-19T20:58:46.090Z,100.00
2022-12-19T21:01:17.508Z,100.00
2022-12-19T21:03:45.633Z,100.00
2022-12-19T21:06:20.172Z,100.00
2022-12-19T21:08:51.526Z,100.00
2022-12-19T21:11:18.566Z,100.00
2022-12-19T21:13:45.754Z,100.00
2022-12-19T21:16:20.101Z,100.00
2022-12-19T21:18:47.857Z,100.00
2022-12-19T21:21:19.338Z,100.00
2022-12-19T21:23:48.266Z,100.00
2022-12-19T21:26:15.532Z,100.00
2022-12-19T21:28:45.382Z,100.00
2022-12-19T21:31:14.874Z,100.00
2022-12-19T21:33:42.851Z,100.00
2022-12-19T21:36:13.120Z,100.00
2022-12-19T21:38:40.372Z,100.00
2022-12-19T21:41:08.163Z,100.00
2022-12-19T21:43:36.277Z,100.00
2022-12-19T21:46:10.367Z,100.00
2022-12-19T21:48:43.623Z,100.00
2022-12-19T21:51:45.992Z,100.00
2022-12-19T21:54:22.491Z,100.00
2022-12-19T21:56:51.893Z,100.00
2022-12-19T21:59:19.191Z,100.00
2022-12-19T22:01:46.564Z,100.00
2022-12-19T22:04:19.449Z,100.00
2022-12-19T22:06:51.174Z,100.00
2022-12-19T22:09:21.392Z,100.00
2022-12-19T22:11:48.793Z,100.00
2022-12-19T22:14:17.062Z,100.00
2022-12-19T22:16:47.109Z,100.00
2022-12-19T22:19:16.230Z,100.00
2022-12-19T22:21:44.740Z,100.00
2022-12-19T22:24:13.672Z,100.00
2022-12-19T22:26:41.226Z,100.00
2022-12-19T22:29:10.786Z,100.00
2022-12-19T22:31:40.863Z,100.00
2022-12-19T22:34:15.874Z,100.00
2022-12-19T22:36:47.247Z,100.00
2022-12-19T22:39:22.475Z,100.00
2022-12-19T22:41:49.826Z,100.00
2022-12-19T22:44:22.217Z,100.00
2022-12-19T22:46:50.083Z,100.00
2022-12-19T22:49:17.387Z,100.00
2022-12-19T22:51:44.659Z,100.00
2022-12-19T22:54:14.795Z,100.00
2022-12-19T22:56:42.102Z,100.00
2022-12-19T22:59:11.690Z,100.00
2022-12-19T23:01:42.484Z,100.00
2022-12-19T23:04:13.204Z,100.00
2022-12-19T23:06:41.453Z,100.00
2022-12-19T23:09:11.194Z,100.00
2022-12-19T23:11:40.755Z,100.00
2022-12-19T23:14:11.243Z,100.00
2022-12-19T23:16:38.502Z,100.00
2022-12-19T23:19:05.940Z,100.00
2022-12-19T23:21:33.097Z,100.00
2022-12-19T23:24:00.209Z,100.00
2022-12-19T23:26:29.789Z,100.00
2022-12-19T23:29:03.413Z,100.00
2022-12-19T23:31:31.125Z,100.00
2022-12-19T23:33:59.044Z,100.00
2022-12-19T23:37:08.234Z,100.00
2022-12-19T23:39:14.703Z,100.00
2022-12-19T23:41:42.154Z,100.00
2022-12-19T23:44:10.105Z,100.00
2022-12-19T23:46:37.940Z,100.00
2022-12-19T23:49:05.099Z,100.00
2022-12-19T23:51:32.309Z,100.00
2022-12-19T23:53:59.375Z,100.00
2022-12-19T23:56:28.743Z,100.00
2022-12-19T23:58:56.783Z,100.00
